createdAt,value
2022-08-01T00:00:18.112Z,2.80
2022-08-01T00:02:44.895Z,2.80
2022-08-01T00:05:12.290Z,2.93
2022-08-01T00:07:39.185Z,2.80
2022-08-01T00:10:13.165Z,2.87
2022-08-01T00:12:41.090Z,3.00
2022-08-01T00:15:10.324Z,2.90
2022-08-01T00:17:37.665Z,3.10
2022-08-01T00:20:09.052Z,2.83
2022-08-01T00:22:36.316Z,3.00
2022-08-01T00:25:04.611Z,3.00
2022-08-01T00:27:32.714Z,2.93
2022-08-01T00:30:12.696Z,2.73
2022-08-01T00:32:43.272Z,2.90
2022-08-01T00:35:10.573Z,3.17
2022-08-01T00:37:38.222Z,3.30
2022-08-01T00:40:05.994Z,3.33
2022-08-01T00:42:32.934Z,3.20
2022-08-01T00:45:00.569Z,2.90
2022-08-01T00:47:27.420Z,2.80
2022-08-01T00:49:54.397Z,2.87
2022-08-01T00:52:21.447Z,2.60
2022-08-01T00:54:50.116Z,3.03
2022-08-01T00:57:27.874Z,2.80
2022-08-01T01:00:06.154Z,2.90
2022-08-01T01:02:33.752Z,2.80
2022-08-01T01:05:00.607Z,2.90
2022-08-01T01:07:36.104Z,2.80
2022-08-01T01:10:09.041Z,3.00
2022-08-01T01:12:52.607Z,2.70
2022-08-01T01:15:27.462Z,2.83
2022-08-01T01:18:01.895Z,2.90
2022-08-01T01:20:37.199Z,2.90
2022-08-01T01:23:11.086Z,2.83
2022-08-01T01:25:38.111Z,2.90
2022-08-01T01:28:33.654Z,3.07
2022-08-01T01:31:02.222Z,2.90
2022-08-01T01:33:32.902Z,2.90
2022-08-01T01:36:11.383Z,2.90
2022-08-01T01:38:45.175Z,2.80
2022-08-01T01:41:13.887Z,3.20
2022-08-01T01:43:42.347Z,2.90
2022-08-01T01:46:11.819Z,2.90
2022-08-01T01:48:40.972Z,2.77
2022-08-01T01:51:08.820Z,2.97
2022-08-01T01:53:36.902Z,2.90
2022-08-01T01:56:04.821Z,2.93
2022-08-01T01:58:34.788Z,2.70
2022-08-01T02:01:03.953Z,3.10
2022-08-01T02:03:32.664Z,2.80
2022-08-01T02:06:01.821Z,3.13
2022-08-01T02:08:32.020Z,2.77
2022-08-01T02:11:20.103Z,3.00
2022-08-01T02:14:06.309Z,3.00
2022-08-01T02:16:37.217Z,3.00
2022-08-01T02:19:08.075Z,2.97
2022-08-01T02:21:45.124Z,2.80
2022-08-01T02:24:22.689Z,3.07
2022-08-01T02:27:02.739Z,2.80
2022-08-01T02:29:40.797Z,2.60
2022-08-01T02:32:12.877Z,2.90
2022-08-01T02:34:42.240Z,2.90
2022-08-01T02:37:10.862Z,3.00
2022-08-01T02:39:40.888Z,2.80
2022-08-01T02:42:09.686Z,3.00
2022-08-01T02:44:40.704Z,3.00
2022-08-01T02:47:08.086Z,2.80
2022-08-01T02:49:46.392Z,3.00
2022-08-01T02:52:23.219Z,3.00
2022-08-01T02:54:54.623Z,3.00
2022-08-01T02:57:23.337Z,3.00
2022-08-01T02:59:59.316Z,3.00
2022-08-01T03:02:27.944Z,2.90
2022-08-01T03:04:57.229Z,3.20
2022-08-01T03:07:25.416Z,2.70
2022-08-01T03:10:03.284Z,2.90
2022-08-01T03:12:34.135Z,3.37
2022-08-01T03:15:03.390Z,3.80
2022-08-01T03:17:31.747Z,4.13
2022-08-01T03:20:04.423Z,3.93
2022-08-01T03:22:35.589Z,4.47
2022-08-01T03:25:04.343Z,4.30
2022-08-01T03:27:32.211Z,4.70
2022-08-01T03:30:03.438Z,4.57
2022-08-01T03:32:32.762Z,3.93
2022-08-01T03:35:01.945Z,3.23
2022-08-01T03:37:35.359Z,3.53
2022-08-01T03:40:09.898Z,3.13
2022-08-01T03:42:43.032Z,2.83
2022-08-01T03:45:26.298Z,3.07
2022-08-01T03:48:01.727Z,2.97
2022-08-01T03:50:32.143Z,3.20
2022-08-01T03:53:02.647Z,3.30
2022-08-01T03:55:32.339Z,3.23
2022-08-01T03:58:01.180Z,2.83
2022-08-01T04:00:28.964Z,3.17
2022-08-01T04:02:56.480Z,3.27
2022-08-01T04:05:23.575Z,3.00
2022-08-01T04:07:57.336Z,3.23
2022-08-01T04:10:25.421Z,3.30
2022-08-01T04:12:52.964Z,3.10
2022-08-01T04:15:21.479Z,3.07
2022-08-01T04:17:49.533Z,2.97
2022-08-01T04:20:18.589Z,3.03
2022-08-01T04:22:45.607Z,2.80
2022-08-01T04:25:16.942Z,3.00
2022-08-01T04:27:49.953Z,2.90
2022-08-01T04:30:27.056Z,3.00
2022-08-01T04:32:58.709Z,3.00
2022-08-01T04:36:02.242Z,3.20
2022-08-01T04:38:24.231Z,3.20
2022-08-01T04:40:55.815Z,3.00
2022-08-01T04:43:23.969Z,3.00
2022-08-01T04:45:52.949Z,3.00
2022-08-01T04:48:22.775Z,2.80
2022-08-01T04:50:51.498Z,3.07
2022-08-01T04:53:26.256Z,2.97
2022-08-01T04:55:53.263Z,3.30
2022-08-01T04:58:21.393Z,3.00
2022-08-01T05:00:48.328Z,2.90
2022-08-01T05:03:16.296Z,3.20
2022-08-01T05:05:43.291Z,3.10
2022-08-01T05:08:12.016Z,3.20
2022-08-01T05:10:39.111Z,3.20
2022-08-01T05:13:07.512Z,2.97
2022-08-01T05:15:37.713Z,3.27
2022-08-01T05:18:05.309Z,3.10
2022-08-01T05:20:34.854Z,3.40
2022-08-01T05:23:03.124Z,3.30
2022-08-01T05:25:56.369Z,3.10
2022-08-01T05:28:19.134Z,3.13
2022-08-01T05:30:46.575Z,3.27
2022-08-01T05:33:13.725Z,3.20
2022-08-01T05:35:47.490Z,3.10
2022-08-01T05:38:16.532Z,3.27
2022-08-01T05:40:48.856Z,3.13
2022-08-01T05:43:15.860Z,3.30
2022-08-01T05:45:42.995Z,3.50
2022-08-01T05:48:10.681Z,3.30
2022-08-01T05:50:37.566Z,3.10
2022-08-01T05:53:04.847Z,3.03
2022-08-01T05:55:31.923Z,3.20
2022-08-01T05:57:58.952Z,3.20
2022-08-01T06:00:25.847Z,3.00
2022-08-01T06:02:53.386Z,3.40
2022-08-01T06:05:20.349Z,2.97
2022-08-01T06:07:47.171Z,3.50
2022-08-01T06:10:14.242Z,3.23
2022-08-01T06:12:43.133Z,3.67
2022-08-01T06:15:10.301Z,3.30
2022-08-01T06:17:37.160Z,3.27
2022-08-01T06:20:09.903Z,3.07
2022-08-01T06:22:36.958Z,3.40
2022-08-01T06:25:07.368Z,3.40
2022-08-01T06:27:37.428Z,3.50
2022-08-01T06:30:08.544Z,3.13
2022-08-01T06:32:35.297Z,3.13
2022-08-01T06:35:02.085Z,4.50
2022-08-01T06:37:33.515Z,3.40
2022-08-01T06:40:05.035Z,3.23
2022-08-01T06:42:38.259Z,3.23
2022-08-01T06:45:06.183Z,11.67
2022-08-01T06:47:33.354Z,3.03
2022-08-01T06:50:01.624Z,3.43
2022-08-01T06:52:28.570Z,3.30
2022-08-01T06:54:55.384Z,3.20
2022-08-01T06:57:22.416Z,3.43
2022-08-01T06:59:54.443Z,3.30
2022-08-01T07:02:23.982Z,3.30
2022-08-01T07:04:50.725Z,3.27
2022-08-01T07:07:17.553Z,3.43
2022-08-01T07:09:44.313Z,3.33
2022-08-01T07:12:12.089Z,3.43
2022-08-01T07:14:38.886Z,3.70
2022-08-01T07:17:06.294Z,3.40
2022-08-01T07:19:33.255Z,3.30
2022-08-01T07:21:59.973Z,3.43
2022-08-01T07:24:27.000Z,3.30
2022-08-01T07:26:55.979Z,3.47
2022-08-01T07:29:24.141Z,3.43
2022-08-01T07:31:52.292Z,3.80
2022-08-01T07:34:19.015Z,3.80
2022-08-01T07:36:46.749Z,3.63
2022-08-01T07:39:13.752Z,3.80
2022-08-01T07:41:53.017Z,3.90
2022-08-01T07:44:28.092Z,3.80
2022-08-01T07:46:55.994Z,3.87
2022-08-01T07:49:22.968Z,3.97
2022-08-01T07:52:03.679Z,3.47
2022-08-01T07:54:37.120Z,3.83
2022-08-01T07:57:04.932Z,4.00
2022-08-01T07:59:31.795Z,3.90
2022-08-01T08:01:58.892Z,3.53
2022-08-01T08:04:26.759Z,3.73
2022-08-01T08:06:54.415Z,3.80
2022-08-01T08:09:21.648Z,4.13
2022-08-01T08:11:48.659Z,3.83
2022-08-01T08:14:18.904Z,3.60
2022-08-01T08:16:46.454Z,4.00
2022-08-01T08:19:13.256Z,4.00
2022-08-01T08:21:40.312Z,3.40
2022-08-01T08:24:26.384Z,3.60
2022-08-01T08:26:59.362Z,3.60
2022-08-01T08:29:27.520Z,3.47
2022-08-01T08:31:55.734Z,3.70
2022-08-01T08:34:24.499Z,3.70
2022-08-01T08:36:52.245Z,3.90
2022-08-01T08:39:19.925Z,3.60
2022-08-01T08:41:49.674Z,3.97
2022-08-01T08:44:18.266Z,3.90
2022-08-01T08:46:48.950Z,3.77
2022-08-01T08:49:25.826Z,3.83
2022-08-01T08:51:54.206Z,3.80
2022-08-01T08:54:27.697Z,3.60
2022-08-01T08:56:59.551Z,3.87
2022-08-01T08:59:27.513Z,3.80
2022-08-01T09:01:54.556Z,3.87
2022-08-01T09:04:26.524Z,3.50
2022-08-01T09:06:54.868Z,3.60
2022-08-01T09:09:21.663Z,3.45
2022-08-01T09:11:56.562Z,3.10
2022-08-01T09:14:27.130Z,2.72
2022-08-01T09:17:09.609Z,2.90
2022-08-01T09:19:40.082Z,3.25
2022-08-01T09:22:10.653Z,3.67
2022-08-01T09:24:38.241Z,4.00
2022-08-01T09:27:22.791Z,3.08
2022-08-01T09:30:00.841Z,3.70
2022-08-01T09:32:36.420Z,2.95
2022-08-01T09:35:36.220Z,2.90
2022-08-01T09:38:18.914Z,3.00
2022-08-01T09:40:52.387Z,3.10
2022-08-01T09:43:21.007Z,2.80
2022-08-01T09:45:50.931Z,2.80
2022-08-01T09:48:22.720Z,2.70
2022-08-01T09:50:55.353Z,2.72
2022-08-01T09:53:29.566Z,2.83
2022-08-01T09:56:13.056Z,2.75
2022-08-01T09:59:02.330Z,2.63
2022-08-01T10:01:43.157Z,2.80
2022-08-01T10:04:10.936Z,2.80
2022-08-01T10:06:39.950Z,2.75
2022-08-01T10:09:08.492Z,2.92
2022-08-01T10:11:39.922Z,3.00
2022-08-01T10:14:08.469Z,2.63
2022-08-01T10:16:38.446Z,2.90
2022-08-01T10:19:14.516Z,2.80
2022-08-01T10:21:56.639Z,2.80
2022-08-01T10:24:27.239Z,2.75
2022-08-01T10:27:05.902Z,2.75
2022-08-01T10:30:14.266Z,2.60
2022-08-01T10:32:52.950Z,2.90
2022-08-01T10:35:47.255Z,2.65
2022-08-01T10:38:10.681Z,2.30
2022-08-01T10:40:41.407Z,2.72
2022-08-01T10:43:10.619Z,2.47
2022-08-01T10:45:37.697Z,2.60
2022-08-01T10:48:15.693Z,2.50
2022-08-01T10:50:50.356Z,2.38
2022-08-01T10:53:31.661Z,2.20
2022-08-01T10:56:12.786Z,2.40
2022-08-01T10:58:44.090Z,2.47
2022-08-01T11:01:22.466Z,2.50
2022-08-01T11:04:16.045Z,2.63
2022-08-01T11:06:50.184Z,2.50
2022-08-01T11:09:38.501Z,2.60
2022-08-01T11:12:13.477Z,2.50
2022-08-01T11:14:59.834Z,2.50
2022-08-01T11:17:45.043Z,2.70
2022-08-01T11:20:11.955Z,2.45
2022-08-01T11:23:05.907Z,2.30
2022-08-01T11:26:05.786Z,2.40
2022-08-01T11:28:32.049Z,2.30
2022-08-01T11:31:14.117Z,2.40
2022-08-01T11:33:46.071Z,2.38
2022-08-01T11:36:36.859Z,2.30
2022-08-01T11:39:13.105Z,2.58
2022-08-01T11:41:41.943Z,2.50
2022-08-01T11:44:14.492Z,2.42
2022-08-01T11:46:57.788Z,2.42
2022-08-01T11:49:50.351Z,2.47
2022-08-01T11:52:18.980Z,2.40
2022-08-01T11:54:50.605Z,2.20
2022-08-01T11:57:32.461Z,2.50
2022-08-01T12:00:08.608Z,2.30
2022-08-01T12:02:41.778Z,2.50
2022-08-01T12:05:21.557Z,2.00
2022-08-01T12:07:54.292Z,2.20
2022-08-01T12:10:23.789Z,2.30
2022-08-01T12:12:52.954Z,2.20
2022-08-01T12:15:22.831Z,2.17
2022-08-01T12:17:59.687Z,2.00
2022-08-01T12:20:56.136Z,2.20
2022-08-01T12:23:24.320Z,2.50
2022-08-01T12:25:54.462Z,2.08
2022-08-01T12:28:21.612Z,2.20
2022-08-01T12:30:49.324Z,2.38
2022-08-01T12:33:19.838Z,2.05
2022-08-01T12:35:47.612Z,1.85
2022-08-01T12:38:23.875Z,2.33
2022-08-01T12:40:51.535Z,2.00
2022-08-01T12:43:27.972Z,2.10
2022-08-01T12:45:59.959Z,2.60
2022-08-01T12:48:27.830Z,1.90
2022-08-01T12:50:58.339Z,2.40
2022-08-01T12:53:25.571Z,2.08
2022-08-01T12:55:58.121Z,2.00
2022-08-01T12:58:36.383Z,2.00
2022-08-01T13:01:09.087Z,2.05
2022-08-01T13:03:36.339Z,2.00
2022-08-01T13:06:12.191Z,2.00
2022-08-01T13:08:39.571Z,2.13
2022-08-01T13:11:15.349Z,2.10
2022-08-01T13:13:52.678Z,2.28
2022-08-01T13:16:31.106Z,2.00
2022-08-01T13:19:06.652Z,1.95
2022-08-01T13:21:34.326Z,2.10
2022-08-01T13:24:27.405Z,2.03
2022-08-01T13:27:03.398Z,1.88
2022-08-01T13:29:34.488Z,2.00
2022-08-01T13:32:13.573Z,2.22
2022-08-01T13:35:04.481Z,2.10
2022-08-01T13:37:31.281Z,2.50
2022-08-01T13:39:59.999Z,1.98
2022-08-01T13:42:26.930Z,1.80
2022-08-01T13:44:53.671Z,1.77
2022-08-01T13:47:31.456Z,1.90
2022-08-01T13:50:02.882Z,1.60
2022-08-01T13:52:30.289Z,1.70
2022-08-01T13:54:57.318Z,1.83
2022-08-01T13:57:24.224Z,2.00
2022-08-01T13:59:52.293Z,2.03
2022-08-01T14:02:20.776Z,1.90
2022-08-01T14:04:47.690Z,1.95
2022-08-01T14:07:15.187Z,1.98
2022-08-01T14:10:04.398Z,1.65
2022-08-01T14:12:29.893Z,2.17
2022-08-01T14:14:57.377Z,1.90
2022-08-01T14:17:24.409Z,2.15
2022-08-01T14:19:51.426Z,1.90
2022-08-01T14:22:18.162Z,2.08
2022-08-01T14:24:44.918Z,1.80
2022-08-01T14:27:11.793Z,2.00
2022-08-01T14:30:02.133Z,2.17
2022-08-01T14:32:28.436Z,2.10
2022-08-01T14:34:57.065Z,1.65
2022-08-01T14:37:29.187Z,1.52
2022-08-01T14:40:08.518Z,1.60
2022-08-01T14:42:37.817Z,1.50
2022-08-01T14:45:09.242Z,1.90
2022-08-01T14:47:37.719Z,2.05
2022-08-01T14:50:07.157Z,2.05
2022-08-01T14:52:35.250Z,2.30
2022-08-01T14:55:02.476Z,2.40
2022-08-01T14:57:29.547Z,2.50
2022-08-01T14:59:57.038Z,2.55
2022-08-01T15:02:24.383Z,2.38
2022-08-01T15:04:51.789Z,2.30
2022-08-01T15:07:19.131Z,2.40
2022-08-01T15:09:46.149Z,2.40
2022-08-01T15:12:13.104Z,2.50
2022-08-01T15:14:49.107Z,2.40
2022-08-01T15:17:15.800Z,2.70
2022-08-01T15:19:42.927Z,2.50
2022-08-01T15:22:10.582Z,2.50
2022-08-01T15:24:37.471Z,2.47
2022-08-01T15:27:05.415Z,2.80
2022-08-01T15:29:34.015Z,2.65
2022-08-01T15:32:01.983Z,2.35
2022-08-01T15:34:28.755Z,2.60
2022-08-01T15:36:55.846Z,2.30
2022-08-01T15:39:22.788Z,2.17
2022-08-01T15:41:50.308Z,2.40
2022-08-01T15:44:20.713Z,2.70
2022-08-01T15:46:49.013Z,2.77
2022-08-01T15:49:17.710Z,2.90
2022-08-01T15:51:44.664Z,2.80
2022-08-01T15:54:14.558Z,3.00
2022-08-01T15:56:41.891Z,2.70
2022-08-01T15:59:08.855Z,2.87
2022-08-01T16:01:35.882Z,2.63
2022-08-01T16:04:03.568Z,2.80
2022-08-01T16:06:30.575Z,2.60
2022-08-01T16:08:57.829Z,2.80
2022-08-01T16:11:26.837Z,2.90
2022-08-01T16:13:54.737Z,2.83
2022-08-01T16:16:22.080Z,2.67
2022-08-01T16:18:53.601Z,2.70
2022-08-01T16:21:22.600Z,2.80
2022-08-01T16:23:49.431Z,2.90
2022-08-01T16:26:27.611Z,2.73
2022-08-01T16:28:55.335Z,2.50
2022-08-01T16:31:36.113Z,2.73
2022-08-01T16:34:08.887Z,2.70
2022-08-01T16:36:36.451Z,2.33
2022-08-01T16:39:05.301Z,2.60
2022-08-01T16:41:32.025Z,2.17
2022-08-01T16:44:04.639Z,2.27
2022-08-01T16:46:33.498Z,2.30
2022-08-01T16:49:00.419Z,2.50
2022-08-01T16:51:27.609Z,2.50
2022-08-01T16:53:54.503Z,2.30
2022-08-01T16:56:21.411Z,2.10
2022-08-01T16:58:48.238Z,2.17
2022-08-01T17:01:58.541Z,2.30
2022-08-01T17:04:05.215Z,2.20
2022-08-01T17:06:32.088Z,2.10
2022-08-01T17:08:59.244Z,2.23
2022-08-01T17:11:25.996Z,2.50
2022-08-01T17:13:52.973Z,2.20
2022-08-01T17:16:19.999Z,2.57
2022-08-01T17:18:46.777Z,2.30
2022-08-01T17:21:13.513Z,2.80
2022-08-01T17:23:40.453Z,2.37
2022-08-01T17:26:07.319Z,2.47
2022-08-01T17:28:34.091Z,2.25
2022-08-01T17:31:00.876Z,2.23
2022-08-01T17:33:44.644Z,2.58
2022-08-01T17:36:13.476Z,2.13
2022-08-01T17:38:40.263Z,2.60
2022-08-01T17:41:07.049Z,2.20
2022-08-01T17:43:33.967Z,2.20
2022-08-01T17:46:01.276Z,2.20
2022-08-01T17:48:29.324Z,2.20
2022-08-01T17:50:56.121Z,2.30
2022-08-01T17:53:23.936Z,3.40
2022-08-01T17:55:53.502Z,2.53
2022-08-01T17:58:36.664Z,2.47
2022-08-01T18:01:16.843Z,2.60
2022-08-01T18:03:44.743Z,2.40
2022-08-01T18:06:23.511Z,4.70
2022-08-01T18:08:53.156Z,5.67
2022-08-01T18:11:23.143Z,2.70
2022-08-01T18:13:52.141Z,2.50
2022-08-01T18:16:19.048Z,4.50
2022-08-01T18:18:45.787Z,2.97
2022-08-01T18:21:12.875Z,2.67
2022-08-01T18:23:39.771Z,2.40
2022-08-01T18:26:09.253Z,3.57
2022-08-01T18:28:42.128Z,4.00
2022-08-01T18:31:16.872Z,3.03
2022-08-01T18:33:43.937Z,2.67
2022-08-01T18:36:24.609Z,3.53
2022-08-01T18:38:58.599Z,3.00
2022-08-01T18:41:25.602Z,2.40
2022-08-01T18:43:59.576Z,2.30
2022-08-01T18:46:32.763Z,2.70
2022-08-01T18:48:59.573Z,2.87
2022-08-01T18:51:27.789Z,2.63
2022-08-01T18:53:56.794Z,2.63
2022-08-01T18:56:23.832Z,2.70
2022-08-01T18:58:50.632Z,2.50
2022-08-01T19:01:17.785Z,3.23
2022-08-01T19:03:45.137Z,3.27
2022-08-01T19:06:11.932Z,2.80
2022-08-01T19:08:38.877Z,2.70
2022-08-01T19:11:06.231Z,4.07
2022-08-01T19:13:33.820Z,5.03
2022-08-01T19:16:01.101Z,3.87
2022-08-01T19:18:28.416Z,3.50
2022-08-01T19:20:55.292Z,3.60
2022-08-01T19:23:40.769Z,3.30
2022-08-01T19:26:12.900Z,3.20
2022-08-01T19:28:49.358Z,2.87
2022-08-01T19:31:16.448Z,2.90
2022-08-01T19:33:43.202Z,3.00
2022-08-01T19:36:16.588Z,3.43
2022-08-01T19:38:44.938Z,3.40
2022-08-01T19:41:13.855Z,3.47
2022-08-01T19:43:46.177Z,3.70
2022-08-01T19:46:17.649Z,4.27
2022-08-01T19:48:49.979Z,4.20
2022-08-01T19:51:22.746Z,3.60
2022-08-01T19:54:04.723Z,4.03
2022-08-01T19:56:39.583Z,3.60
2022-08-01T19:59:09.960Z,3.63
2022-08-01T20:01:37.015Z,3.77
2022-08-01T20:04:06.314Z,3.77
2022-08-01T20:06:34.816Z,4.00
2022-08-01T20:09:02.347Z,3.60
2022-08-01T20:11:29.211Z,3.50
2022-08-01T20:13:57.539Z,3.70
2022-08-01T20:16:25.748Z,3.70
2022-08-01T20:18:52.787Z,3.40
2022-08-01T20:21:20.241Z,3.30
2022-08-01T20:23:47.730Z,3.90
2022-08-01T20:26:16.573Z,4.27
2022-08-01T20:28:47.231Z,4.40
2022-08-01T20:31:16.414Z,3.50
2022-08-01T20:33:46.320Z,4.03
2022-08-01T20:36:24.948Z,3.77
2022-08-01T20:38:55.164Z,3.87
2022-08-01T20:41:26.062Z,3.63
2022-08-01T20:43:55.303Z,4.00
2022-08-01T20:46:26.890Z,4.20
2022-08-01T20:48:58.434Z,4.20
2022-08-01T20:51:26.769Z,4.23
2022-08-01T20:53:54.989Z,4.33
2022-08-01T20:56:45.937Z,4.00
2022-08-01T20:59:40.016Z,4.20
2022-08-01T21:02:48.935Z,4.20
2022-08-01T21:05:36.505Z,3.90
2022-08-01T21:08:07.781Z,4.70
2022-08-01T21:10:36.645Z,4.17
2022-08-01T21:13:06.335Z,4.33
2022-08-01T21:15:57.437Z,4.63
2022-08-01T21:18:58.222Z,4.30
2022-08-01T21:21:38.634Z,3.90
2022-08-01T21:24:17.639Z,3.63
2022-08-01T21:26:48.194Z,3.80
2022-08-01T21:29:16.905Z,3.73
2022-08-01T21:32:08.293Z,3.90
2022-08-01T21:34:38.431Z,3.57
2022-08-01T21:37:09.706Z,3.10
2022-08-01T21:39:37.940Z,3.10
2022-08-01T21:42:09.123Z,3.27
2022-08-01T21:44:42.575Z,3.27
2022-08-01T21:47:11.925Z,3.30
2022-08-01T21:49:41.309Z,3.40
2022-08-01T21:52:21.727Z,3.43
2022-08-01T21:55:03.212Z,3.50
2022-08-01T21:57:53.398Z,3.33
2022-08-01T22:00:25.524Z,3.17
2022-08-01T22:03:14.816Z,3.30
2022-08-01T22:05:51.173Z,2.73
2022-08-01T22:08:44.681Z,2.97
2022-08-01T22:11:14.198Z,2.57
2022-08-01T22:13:42.321Z,2.50
2022-08-01T22:16:12.533Z,2.30
2022-08-01T22:18:39.681Z,2.20
2022-08-01T22:21:07.750Z,2.10
2022-08-01T22:23:37.109Z,2.03
2022-08-01T22:26:14.681Z,1.90
2022-08-01T22:28:41.805Z,2.37
2022-08-01T22:31:08.865Z,2.00
2022-08-01T22:33:41.070Z,1.90
2022-08-01T22:36:07.955Z,2.20
2022-08-01T22:38:35.163Z,2.23
2022-08-01T22:41:08.916Z,2.10
2022-08-01T22:43:57.410Z,2.10
2022-08-01T22:46:29.210Z,2.00
2022-08-01T22:49:09.375Z,1.90
2022-08-01T22:51:55.735Z,2.10
2022-08-01T22:54:30.204Z,1.80
2022-08-01T22:56:59.898Z,2.03
2022-08-01T22:59:42.352Z,1.97
2022-08-01T23:02:16.267Z,1.80
2022-08-01T23:04:48.962Z,1.90
2022-08-01T23:07:21.457Z,1.50
2022-08-01T23:09:53.498Z,1.70
2022-08-01T23:12:24.228Z,1.60
2022-08-01T23:14:57.474Z,1.80
2022-08-01T23:17:30.722Z,1.67
2022-08-01T23:20:17.291Z,1.60
2022-08-01T23:22:48.816Z,1.73
2022-08-01T23:25:17.607Z,1.53
2022-08-01T23:27:55.706Z,1.80
2022-08-01T23:30:34.863Z,1.80
2022-08-01T23:33:02.406Z,2.00
2022-08-01T23:35:30.744Z,1.77
2022-08-01T23:38:02.330Z,1.73
2022-08-01T23:40:32.743Z,2.00
2022-08-01T23:43:02.464Z,2.10
2022-08-01T23:46:01.694Z,2.10
2022-08-01T23:48:17.946Z,2.00
2022-08-01T23:50:45.020Z,2.03
2022-08-01T23:53:13.013Z,2.20
2022-08-01T23:55:44.088Z,2.30
2022-08-01T23:58:13.197Z,2.10
